createdAt,value
2019-03-28T00:01:12.861Z,15.85
2019-03-28T00:03:41.365Z,17.20
2019-03-28T00:06:09.862Z,17.57
2019-03-28T00:08:38.364Z,16.30
2019-03-28T00:11:06.887Z,16.70
2019-03-28T00:13:35.392Z,16.62
2019-03-28T00:16:04.162Z,16.52
2019-03-28T00:18:32.673Z,15.83
2019-03-28T00:21:01.273Z,16.12
2019-03-28T00:23:32.155Z,17.75
2019-03-28T00:26:00.804Z,16.62
2019-03-28T00:28:29.370Z,16.97
2019-03-28T00:30:57.919Z,14.75
2019-03-28T00:33:26.468Z,16.87
2019-03-28T00:35:54.993Z,16.75
2019-03-28T00:38:23.636Z,16.65
2019-03-28T00:40:52.146Z,17.95
2019-03-28T00:43:23.182Z,16.65
2019-03-28T00:45:51.704Z,16.20
2019-03-28T00:48:20.434Z,16.85
2019-03-28T00:50:49.132Z,16.80
2019-03-28T00:53:17.676Z,17.35
2019-03-28T00:55:46.204Z,15.40
2019-03-28T00:58:17.730Z,14.15
2019-03-28T01:00:46.366Z,15.78
2019-03-28T01:03:15.236Z,15.48
2019-03-28T01:05:43.726Z,15.35
2019-03-28T01:08:12.369Z,14.23
2019-03-28T01:10:40.925Z,15.48
2019-03-28T01:13:09.666Z,15.75
2019-03-28T01:15:38.167Z,15.78
2019-03-28T01:18:06.793Z,13.98
2019-03-28T01:20:35.378Z,15.58
2019-03-28T01:23:03.893Z,15.65
2019-03-28T01:25:32.413Z,14.78
2019-03-28T01:28:00.958Z,15.53
2019-03-28T01:30:29.464Z,15.75
2019-03-28T01:32:59.636Z,15.40
2019-03-28T01:35:29.783Z,16.10
2019-03-28T01:37:59.954Z,15.38
2019-03-28T01:40:28.452Z,16.07
2019-03-28T01:42:57.030Z,15.72
2019-03-28T01:45:25.603Z,14.75
2019-03-28T01:47:54.129Z,16.37
2019-03-28T01:50:25.406Z,15.40
2019-03-28T01:53:01.185Z,14.35
2019-03-28T01:55:27.233Z,13.78
2019-03-28T01:57:55.755Z,13.88
2019-03-28T02:00:24.380Z,13.83
2019-03-28T02:02:52.889Z,13.65
2019-03-28T02:05:21.590Z,15.83
2019-03-28T02:07:50.283Z,14.25
2019-03-28T02:10:18.973Z,13.22
2019-03-28T02:12:47.468Z,13.98
2019-03-28T02:15:16.204Z,13.55
2019-03-28T02:17:44.784Z,14.33
2019-03-28T02:20:13.485Z,14.10
2019-03-28T02:22:41.968Z,13.95
2019-03-28T02:25:10.794Z,13.35
2019-03-28T02:27:39.311Z,15.30
2019-03-28T02:30:11.447Z,14.80
2019-03-28T02:32:40.024Z,14.70
2019-03-28T02:35:09.217Z,15.85
2019-03-28T02:37:37.828Z,15.80
2019-03-28T02:40:10.743Z,15.63
2019-03-28T02:42:39.298Z,16.10
2019-03-28T02:45:08.419Z,16.12
2019-03-28T02:47:36.912Z,16.67
2019-03-28T02:50:09.387Z,16.15
2019-03-28T02:52:37.880Z,16.17
2019-03-28T02:55:10.245Z,15.23
2019-03-28T02:57:42.056Z,15.93
2019-03-28T03:00:09.825Z,15.53
2019-03-28T03:02:38.434Z,16.73
2019-03-28T03:05:10.356Z,16.57
2019-03-28T03:07:38.888Z,17.30
2019-03-28T03:10:09.249Z,17.23
2019-03-28T03:12:37.749Z,16.32
2019-03-28T03:15:08.044Z,16.65
2019-03-28T03:17:36.547Z,15.83
2019-03-28T03:20:06.758Z,16.40
2019-03-28T03:22:35.259Z,16.37
2019-03-28T03:25:05.973Z,16.75
2019-03-28T03:27:37.627Z,17.80
2019-03-28T03:30:08.112Z,16.10
2019-03-28T03:32:36.757Z,16.45
2019-03-28T03:35:06.099Z,15.32
2019-03-28T03:37:34.794Z,17.40
2019-03-28T03:40:05.753Z,15.50
2019-03-28T03:42:34.417Z,16.00
2019-03-28T03:45:06.278Z,16.93
2019-03-28T03:47:34.774Z,17.62
2019-03-28T03:50:07.505Z,19.35
2019-03-28T03:52:36.063Z,18.05
2019-03-28T03:55:06.699Z,18.82
2019-03-28T03:57:35.183Z,18.45
2019-03-28T04:00:05.742Z,18.15
2019-03-28T04:02:34.219Z,18.50
2019-03-28T04:05:02.852Z,19.52
2019-03-28T04:07:31.431Z,18.15
2019-03-28T04:09:59.939Z,17.67
2019-03-28T04:12:31.223Z,18.35
2019-03-28T04:14:59.804Z,17.35
2019-03-28T04:17:28.289Z,17.82
2019-03-28T04:19:56.825Z,18.30
2019-03-28T04:22:25.320Z,18.17
2019-03-28T04:24:53.914Z,18.73
2019-03-28T04:27:22.462Z,17.92
2019-03-28T04:29:50.962Z,19.12
2019-03-28T04:32:20.579Z,18.57
2019-03-28T04:34:49.362Z,18.95
2019-03-28T04:37:18.618Z,18.85
2019-03-28T04:39:49.413Z,18.80
2019-03-28T04:42:20.197Z,19.17
2019-03-28T04:44:48.698Z,18.45
2019-03-28T04:47:17.262Z,18.80
2019-03-28T04:49:45.763Z,21.85
2019-03-28T04:52:14.781Z,19.77
2019-03-28T04:54:43.269Z,20.27
2019-03-28T04:57:11.830Z,19.85
2019-03-28T04:59:40.421Z,21.23
2019-03-28T05:02:09.971Z,22.30
2019-03-28T05:04:38.501Z,21.00
2019-03-28T05:07:07.011Z,21.35
2019-03-28T05:09:35.578Z,21.68
2019-03-28T05:12:04.162Z,21.35
2019-03-28T05:14:32.691Z,23.70
2019-03-28T05:17:01.259Z,22.65
2019-03-28T05:19:29.761Z,22.22
2019-03-28T05:21:58.362Z,22.25
2019-03-28T05:24:26.995Z,23.60
2019-03-28T05:26:56.105Z,20.17
2019-03-28T05:29:26.525Z,23.95
2019-03-28T05:31:54.883Z,23.22
2019-03-28T05:34:23.393Z,22.22
2019-03-28T05:36:52.303Z,21.97
2019-03-28T05:39:20.979Z,23.32
2019-03-28T05:41:49.507Z,23.30
2019-03-28T05:44:18.022Z,22.85
2019-03-28T05:46:46.539Z,21.75
2019-03-28T05:49:15.063Z,23.32
2019-03-28T05:51:43.560Z,22.22
2019-03-28T05:54:13.691Z,23.52
2019-03-28T05:56:42.261Z,21.30
2019-03-28T05:59:11.603Z,22.32
2019-03-28T06:01:42.215Z,21.17
2019-03-28T06:04:10.780Z,20.75
2019-03-28T06:06:39.528Z,21.00
2019-03-28T06:09:11.321Z,21.60
2019-03-28T06:11:39.864Z,22.55
2019-03-28T06:14:19.652Z,22.52
2019-03-28T06:16:48.176Z,20.88
2019-03-28T06:19:16.705Z,23.65
2019-03-28T06:21:45.228Z,20.88
2019-03-28T06:24:16.496Z,23.67
2019-03-28T06:26:49.962Z,23.55
2019-03-28T06:29:24.022Z,23.87
2019-03-28T06:31:55.227Z,22.65
2019-03-28T06:34:20.431Z,21.87
2019-03-28T06:36:48.903Z,21.73
2019-03-28T06:39:17.391Z,23.75
2019-03-28T06:41:45.903Z,21.40
2019-03-28T06:44:14.414Z,18.95
2019-03-28T06:46:42.952Z,19.85
2019-03-28T06:49:11.795Z,21.55
2019-03-28T06:51:40.301Z,24.23
2019-03-28T06:54:08.807Z,22.75
2019-03-28T06:56:37.327Z,23.15
2019-03-28T06:59:06.007Z,22.13
2019-03-28T07:01:34.524Z,25.48
2019-03-28T07:04:06.123Z,21.90
2019-03-28T07:06:34.694Z,24.52
2019-03-28T07:09:04.265Z,24.45
2019-03-28T07:11:33.229Z,23.77
2019-03-28T07:14:02.378Z,24.55
2019-03-28T07:16:30.941Z,22.02
2019-03-28T07:18:59.465Z,24.57
2019-03-28T07:21:30.157Z,22.42
2019-03-28T07:23:58.697Z,24.35
2019-03-28T07:26:27.275Z,22.95
2019-03-28T07:28:55.945Z,20.35
2019-03-28T07:31:24.535Z,21.12
2019-03-28T07:33:55.785Z,21.05
2019-03-28T07:36:24.266Z,20.80
2019-03-28T07:38:52.820Z,22.02
2019-03-28T07:41:24.178Z,21.60
2019-03-28T07:43:52.678Z,20.23
2019-03-28T07:46:21.182Z,21.23
2019-03-28T07:48:49.710Z,21.85
2019-03-28T07:51:18.212Z,22.70
2019-03-28T07:53:47.419Z,19.62
2019-03-28T07:56:16.008Z,21.17
2019-03-28T07:58:44.619Z,22.15
2019-03-28T08:01:13.097Z,19.95
2019-03-28T08:03:41.617Z,21.15
2019-03-28T08:06:12.795Z,19.82
2019-03-28T08:08:44.056Z,20.00
2019-03-28T08:11:11.166Z,20.70
2019-03-28T08:13:39.696Z,21.00
2019-03-28T08:16:08.195Z,19.87
2019-03-28T08:18:38.245Z,19.67
2019-03-28T08:21:06.753Z,17.80
2019-03-28T08:23:35.618Z,16.45
2019-03-28T08:26:04.513Z,19.90
2019-03-28T08:28:33.066Z,18.95
2019-03-28T08:31:04.510Z,18.55
2019-03-28T08:33:33.576Z,17.95
2019-03-28T08:36:04.562Z,17.57
2019-03-28T08:38:35.750Z,21.60
2019-03-28T08:41:06.978Z,20.70
2019-03-28T08:43:36.108Z,20.32
2019-03-28T08:46:04.830Z,19.60
2019-03-28T08:48:34.854Z,17.45
2019-03-28T08:51:06.576Z,18.12
2019-03-28T08:53:37.640Z,16.90
2019-03-28T08:56:06.040Z,17.73
2019-03-28T08:58:37.870Z,16.57
2019-03-28T09:01:06.393Z,18.27
2019-03-28T09:03:34.894Z,17.05
2019-03-28T09:06:03.590Z,17.40
2019-03-28T09:08:32.044Z,15.78
2019-03-28T09:11:00.569Z,14.50
2019-03-28T09:13:29.124Z,14.33
2019-03-28T09:15:57.695Z,14.50
2019-03-28T09:18:26.218Z,13.83
2019-03-28T09:20:54.812Z,14.28
2019-03-28T09:23:23.388Z,14.33
2019-03-28T09:25:52.054Z,12.75
2019-03-28T09:28:20.613Z,13.25
2019-03-28T09:30:49.849Z,13.85
2019-03-28T09:33:18.549Z,14.90
2019-03-28T09:35:47.177Z,13.05
2019-03-28T09:38:17.230Z,13.38
2019-03-28T09:40:57.042Z,11.95
2019-03-28T09:43:25.574Z,13.65
2019-03-28T09:45:54.155Z,12.98
2019-03-28T09:48:22.857Z,13.62
2019-03-28T09:50:51.421Z,14.10
2019-03-28T09:53:19.951Z,13.03
2019-03-28T09:55:48.509Z,12.65
2019-03-28T09:58:17.007Z,14.18
2019-03-28T10:00:46.089Z,13.50
2019-03-28T10:03:17.404Z,12.53
2019-03-28T10:05:45.902Z,13.53
2019-03-28T10:08:14.498Z,11.95
2019-03-28T10:10:43.136Z,12.30
2019-03-28T10:13:13.167Z,13.32
2019-03-28T10:15:41.840Z,12.47
2019-03-28T10:18:10.425Z,11.43
2019-03-28T10:20:41.013Z,11.78
2019-03-28T10:23:12.587Z,11.38
2019-03-28T10:25:41.397Z,11.30
2019-03-28T10:28:09.881Z,11.40
2019-03-28T10:30:40.768Z,11.33
2019-03-28T10:33:09.577Z,10.15
2019-03-28T10:35:38.238Z,10.55
2019-03-28T10:38:08.541Z,10.85
2019-03-28T10:40:37.168Z,10.23
2019-03-28T10:43:07.283Z,9.58
2019-03-28T10:45:36.833Z,10.08
2019-03-28T10:48:05.471Z,9.28
2019-03-28T10:50:41.486Z,8.73
2019-03-28T10:53:04.349Z,9.25
2019-03-28T10:55:32.873Z,9.53
2019-03-28T10:58:17.232Z,8.78
2019-03-28T11:00:32.785Z,8.05
2019-03-28T11:03:01.359Z,8.05
2019-03-28T11:05:32.633Z,8.13
2019-03-28T11:08:01.142Z,9.50
2019-03-28T11:10:30.640Z,8.35
2019-03-28T11:12:59.485Z,8.45
2019-03-28T11:15:28.039Z,8.58
2019-03-28T11:17:56.638Z,8.08
2019-03-28T11:20:25.496Z,9.20
2019-03-28T11:22:54.012Z,9.55
2019-03-28T11:25:24.378Z,8.38
2019-03-28T11:27:52.908Z,8.98
2019-03-28T11:30:23.024Z,7.37
2019-03-28T11:32:51.522Z,7.53
2019-03-28T11:35:21.875Z,7.20
2019-03-28T11:37:53.358Z,6.80
2019-03-28T11:40:24.571Z,7.65
2019-03-28T11:42:55.558Z,6.80
2019-03-28T11:45:26.940Z,7.12
2019-03-28T11:47:55.980Z,7.08
2019-03-28T11:50:24.632Z,7.67
2019-03-28T11:52:53.248Z,7.05
2019-03-28T11:55:21.827Z,6.97
2019-03-28T11:57:50.356Z,7.28
2019-03-28T12:00:19.704Z,7.25
2019-03-28T12:02:48.214Z,6.72
2019-03-28T12:05:16.893Z,6.80
2019-03-28T12:07:45.488Z,7.17
2019-03-28T12:10:14.550Z,6.92
2019-03-28T12:12:43.207Z,6.47
2019-03-28T12:15:12.981Z,7.15
2019-03-28T12:17:41.550Z,7.42
2019-03-28T12:20:11.703Z,7.40
2019-03-28T12:22:40.348Z,7.00
2019-03-28T12:25:09.042Z,6.67
2019-03-28T12:27:37.715Z,7.33
2019-03-28T12:30:08.553Z,7.95
2019-03-28T12:32:37.089Z,8.53
2019-03-28T12:35:07.860Z,8.00
2019-03-28T12:37:36.842Z,7.80
2019-03-28T12:40:08.504Z,7.95
2019-03-28T12:42:37.166Z,7.50
2019-03-28T12:45:12.951Z,8.70
2019-03-28T12:47:43.145Z,7.20
2019-03-28T12:50:13.191Z,8.13
2019-03-28T12:52:41.846Z,7.60
2019-03-28T12:55:10.983Z,7.95
2019-03-28T12:57:39.626Z,6.95
2019-03-28T13:00:10.381Z,7.35
2019-03-28T13:02:39.471Z,7.78
2019-03-28T13:05:09.844Z,7.85
2019-03-28T13:07:38.374Z,7.60
2019-03-28T13:10:12.589Z,7.33
2019-03-28T13:12:41.173Z,8.10
2019-03-28T13:15:10.390Z,7.10
2019-03-28T13:17:38.911Z,8.65
2019-03-28T13:20:09.462Z,7.00
2019-03-28T13:22:38.045Z,7.85
2019-03-28T13:25:09.880Z,7.83
2019-03-28T13:27:38.435Z,8.90
2019-03-28T13:30:10.250Z,8.20
2019-03-28T13:32:41.972Z,8.50
2019-03-28T13:35:09.747Z,8.70
2019-03-28T13:37:38.228Z,8.25
2019-03-28T13:40:08.664Z,8.60
2019-03-28T13:42:40.930Z,7.87
2019-03-28T13:45:11.555Z,8.95
2019-03-28T13:47:40.125Z,7.60
2019-03-28T13:50:10.938Z,8.03
2019-03-28T13:52:41.890Z,7.72
2019-03-28T13:55:13.546Z,8.50
2019-03-28T13:57:43.507Z,7.08
2019-03-28T14:00:13.709Z,6.83
2019-03-28T14:02:55.495Z,7.12
2019-03-28T14:05:14.117Z,7.00
2019-03-28T14:07:42.579Z,6.47
2019-03-28T14:10:11.543Z,6.08
2019-03-28T14:12:40.043Z,6.58
2019-03-28T14:15:12.243Z,6.80
2019-03-28T14:17:40.723Z,7.83
2019-03-28T14:20:14.644Z,7.20
2019-03-28T14:22:43.172Z,7.60
2019-03-28T14:25:12.054Z,6.75
2019-03-28T14:27:40.530Z,7.08
2019-03-28T14:30:11.636Z,7.90
2019-03-28T14:32:52.496Z,7.12
2019-03-28T14:35:10.808Z,6.87
2019-03-28T14:37:40.731Z,6.75
2019-03-28T14:40:11.833Z,6.97
2019-03-28T14:42:40.985Z,7.20
2019-03-28T14:45:09.952Z,6.87
2019-03-28T14:47:42.006Z,8.38
2019-03-28T14:50:11.994Z,7.37
2019-03-28T14:52:40.546Z,7.20
2019-03-28T14:55:09.220Z,7.42
2019-03-28T14:57:38.250Z,9.10
2019-03-28T15:00:10.005Z,9.10
2019-03-28T15:02:38.555Z,8.98
2019-03-28T15:05:07.324Z,7.40
2019-03-28T15:07:35.798Z,8.50
2019-03-28T15:10:07.013Z,9.78
2019-03-28T15:12:35.478Z,10.23
2019-03-28T15:15:04.561Z,12.75
2019-03-28T15:17:33.032Z,11.50
2019-03-28T15:20:01.617Z,9.53
2019-03-28T15:22:30.102Z,9.70
2019-03-28T15:24:58.586Z,9.08
2019-03-28T15:27:28.518Z,8.68
2019-03-28T15:29:57.030Z,9.68
2019-03-28T15:32:25.571Z,9.13
2019-03-28T15:34:54.057Z,8.83
2019-03-28T15:37:27.478Z,8.83
2019-03-28T15:40:18.714Z,9.75
2019-03-28T15:42:47.523Z,9.53
2019-03-28T15:45:16.162Z,10.40
2019-03-28T15:47:44.634Z,11.70
2019-03-28T15:50:13.321Z,12.43
2019-03-28T15:52:41.878Z,9.98
2019-03-28T15:55:10.544Z,10.13
2019-03-28T15:57:40.866Z,10.05
2019-03-28T16:00:11.017Z,9.93
2019-03-28T16:02:42.809Z,9.98
2019-03-28T16:05:14.553Z,9.55
2019-03-28T16:07:43.655Z,9.28
2019-03-28T16:10:14.770Z,11.05
2019-03-28T16:12:44.356Z,10.78
2019-03-28T16:15:14.425Z,11.20
2019-03-28T16:17:42.973Z,9.48
2019-03-28T16:20:12.116Z,10.10
2019-03-28T16:22:40.579Z,9.83
2019-03-28T16:25:09.349Z,10.48
2019-03-28T16:27:37.828Z,9.73
2019-03-28T16:30:30.108Z,8.78
2019-03-28T16:32:58.650Z,9.85
2019-03-28T16:35:27.160Z,8.55
2019-03-28T16:37:55.656Z,9.05
2019-03-28T16:40:24.254Z,8.20
2019-03-28T16:42:52.747Z,8.53
2019-03-28T16:45:21.397Z,7.75
2019-03-28T16:47:49.871Z,8.55
2019-03-28T16:50:19.259Z,8.90
2019-03-28T16:52:48.287Z,8.73
2019-03-28T16:55:26.229Z,7.72
2019-03-28T16:57:47.263Z,6.72
2019-03-28T17:00:16.743Z,8.13
2019-03-28T17:02:56.088Z,7.92
2019-03-28T17:05:25.956Z,6.67
2019-03-28T17:07:54.618Z,8.23
2019-03-28T17:10:42.431Z,8.15
2019-03-28T17:13:16.382Z,6.47
2019-03-28T17:15:47.272Z,7.65
2019-03-28T17:18:18.445Z,7.95
2019-03-28T17:20:46.072Z,8.18
2019-03-28T17:23:14.686Z,8.55
2019-03-28T17:25:43.245Z,9.68
2019-03-28T17:28:14.924Z,8.90
2019-03-28T17:30:48.314Z,10.70
2019-03-28T17:33:18.953Z,14.40
2019-03-28T17:35:49.558Z,9.43
2019-03-28T17:38:17.752Z,11.97
2019-03-28T17:40:46.698Z,18.30
2019-03-28T17:43:15.895Z,30.68
2019-03-28T17:45:44.858Z,19.80
2019-03-28T17:48:13.457Z,23.38
2019-03-28T17:50:43.715Z,12.25
2019-03-28T17:53:12.519Z,9.13
2019-03-28T17:55:40.991Z,9.28
2019-03-28T17:58:13.708Z,8.55
2019-03-28T18:00:46.840Z,9.13
2019-03-28T18:03:15.392Z,8.35
2019-03-28T18:05:57.131Z,10.25
2019-03-28T18:08:14.403Z,13.22
2019-03-28T18:10:44.458Z,16.20
2019-03-28T18:13:16.146Z,14.00
2019-03-28T18:15:47.951Z,13.22
2019-03-28T18:18:16.467Z,10.93
2019-03-28T18:20:44.962Z,9.70
2019-03-28T18:23:13.433Z,8.93
2019-03-28T18:25:44.912Z,7.40
2019-03-28T18:28:15.331Z,6.90
2019-03-28T18:30:43.902Z,6.67
2019-03-28T18:33:12.436Z,7.15
2019-03-28T18:35:41.026Z,7.15
2019-03-28T18:38:10.697Z,5.83
2019-03-28T18:40:40.231Z,7.00
2019-03-28T18:43:08.872Z,5.80
2019-03-28T18:45:37.497Z,6.15
2019-03-28T18:48:08.876Z,5.62
2019-03-28T18:50:36.381Z,6.08
2019-03-28T18:53:06.951Z,5.60
2019-03-28T18:55:41.519Z,5.25
2019-03-28T18:58:10.047Z,5.58
2019-03-28T19:00:38.678Z,5.00
2019-03-28T19:03:10.171Z,5.60
2019-03-28T19:05:45.366Z,5.85
2019-03-28T19:08:13.910Z,5.67
2019-03-28T19:10:45.405Z,5.65
2019-03-28T19:13:14.167Z,6.60
2019-03-28T19:15:42.827Z,5.67
2019-03-28T19:18:13.196Z,6.47
2019-03-28T19:20:41.819Z,5.60
2019-03-28T19:23:10.869Z,6.25
2019-03-28T19:25:42.847Z,5.97
2019-03-28T19:28:27.643Z,6.30
2019-03-28T19:30:46.980Z,6.80
2019-03-28T19:33:15.477Z,7.12
2019-03-28T19:35:45.240Z,6.42
2019-03-28T19:38:13.811Z,6.47
2019-03-28T19:40:42.452Z,6.15
2019-03-28T19:43:20.454Z,6.30
2019-03-28T19:45:46.706Z,6.58
2019-03-28T19:48:15.258Z,7.10
2019-03-28T19:50:46.540Z,5.95
2019-03-28T19:53:19.328Z,6.97
2019-03-28T19:55:49.362Z,4.75
2019-03-28T19:58:17.897Z,6.08
2019-03-28T20:00:46.539Z,5.92
2019-03-28T20:03:15.002Z,5.33
2019-03-28T20:05:47.823Z,5.83
2019-03-28T20:08:15.961Z,5.28
2019-03-28T20:10:50.296Z,4.85
2019-03-28T20:13:23.869Z,5.33
2019-03-28T20:15:52.806Z,4.97
2019-03-28T20:18:21.355Z,5.25
2019-03-28T20:20:49.912Z,5.22
2019-03-28T20:23:18.560Z,5.08
2019-03-28T20:25:47.162Z,5.50
2019-03-28T20:28:16.394Z,5.50
2019-03-28T20:30:45.103Z,5.85
2019-03-28T20:33:13.569Z,5.03
2019-03-28T20:35:42.198Z,6.33
2019-03-28T20:38:10.744Z,5.83
2019-03-28T20:40:39.401Z,5.50
2019-03-28T20:43:10.643Z,5.95
2019-03-28T20:45:39.180Z,6.00
2019-03-28T20:48:12.137Z,6.00
2019-03-28T20:50:45.518Z,6.17
2019-03-28T20:53:13.392Z,6.35
2019-03-28T20:55:44.859Z,6.12
2019-03-28T20:58:13.545Z,6.05
2019-03-28T21:00:44.399Z,6.17
2019-03-28T21:03:15.024Z,5.55
2019-03-28T21:05:45.080Z,5.42
2019-03-28T21:08:13.869Z,6.35
2019-03-28T21:10:42.415Z,6.90
2019-03-28T21:13:10.993Z,6.03
2019-03-28T21:15:39.539Z,7.33
2019-03-28T21:18:08.074Z,6.70
2019-03-28T21:20:36.791Z,6.62
2019-03-28T21:23:05.531Z,6.37
2019-03-28T21:25:34.033Z,6.15
2019-03-28T21:28:02.594Z,6.35
2019-03-28T21:30:31.176Z,7.10
2019-03-28T21:32:59.740Z,6.50
2019-03-28T21:35:28.286Z,6.97
2019-03-28T21:37:56.788Z,6.83
2019-03-28T21:40:25.319Z,6.25
2019-03-28T21:42:53.776Z,6.28
2019-03-28T21:45:22.555Z,6.47
2019-03-28T21:47:51.149Z,6.67
2019-03-28T21:50:19.778Z,6.33
2019-03-28T21:52:48.435Z,7.25
2019-03-28T21:55:18.711Z,6.85
2019-03-28T21:57:47.193Z,6.87
2019-03-28T22:00:17.182Z,6.08
2019-03-28T22:02:45.786Z,6.80
2019-03-28T22:05:14.512Z,7.03
2019-03-28T22:07:42.995Z,7.95
2019-03-28T22:10:11.745Z,7.30
2019-03-28T22:12:40.307Z,6.78
2019-03-28T22:15:09.691Z,6.55
2019-03-28T22:17:41.972Z,7.10
2019-03-28T22:20:10.968Z,6.97
2019-03-28T22:22:39.607Z,7.60
2019-03-28T22:25:08.348Z,7.70
2019-03-28T22:27:36.943Z,7.70
2019-03-28T22:30:07.202Z,7.22
2019-03-28T22:32:35.752Z,7.50
2019-03-28T22:35:28.727Z,7.22
2019-03-28T22:37:57.214Z,7.08
2019-03-28T22:40:25.758Z,7.75
2019-03-28T22:42:54.245Z,7.60
2019-03-28T22:45:22.932Z,8.38
2019-03-28T22:47:51.438Z,8.15
2019-03-28T22:50:20.017Z,7.28
2019-03-28T22:52:48.532Z,7.15
2019-03-28T22:55:17.184Z,7.87
2019-03-28T22:57:45.688Z,7.83
2019-03-28T23:00:15.558Z,8.05
2019-03-28T23:02:44.180Z,6.58
2019-03-28T23:05:13.506Z,7.47
2019-03-28T23:07:41.988Z,7.05
2019-03-28T23:10:11.463Z,7.75
2019-03-28T23:12:40.058Z,6.97
2019-03-28T23:15:10.856Z,7.22
2019-03-28T23:17:39.480Z,7.70
2019-03-28T23:20:09.921Z,7.97
2019-03-28T23:22:38.492Z,8.23
2019-03-28T23:25:09.113Z,7.25
2019-03-28T23:27:37.673Z,7.67
2019-03-28T23:30:09.351Z,7.47
2019-03-28T23:32:38.754Z,7.70
2019-03-28T23:35:08.213Z,8.23
2019-03-28T23:37:36.701Z,7.95
2019-03-28T23:40:09.899Z,7.67
2019-03-28T23:42:38.478Z,7.70
2019-03-28T23:45:11.896Z,7.87
2019-03-28T23:47:41.940Z,8.23
2019-03-28T23:50:10.585Z,8.10
2019-03-28T23:52:39.069Z,7.33
2019-03-28T23:55:09.281Z,7.92
2019-03-28T23:57:37.753Z,7.97
